Tenakee Springs, Alaska
Current Conditions -  °F | °C
As of 11:56 PM on Thursday 23 Oct 2014 (Local Time) from PAOH Reporting Station
Haze Haze  
Wind Chill: 36°   Ceiling: 6500
Heat Index: 36°   Visibility: 4mi
Dew Point: 36°   Wind: 0mph
Humidity: 100%   Direction: NA
Pressure: 29.8"   Gusts: NA
Location:  57.78°N, 135.22°W
Report Text: PAOH 240756Z AUTO 00000KT 4SM BR FEW004 SCT042 OVC065 02/02 A2980 RMK AO2 TSNO T00220022 400660000 SLP093 $
Loading
Personal Weather Stations






























Interactive Weather Map
Tropical Storm Tracking
New forecast layout! Learn more

10-Day Weather Forecast

Advertisements
Track Severe Weather on mobile